CP2737 SLCB-SLCB
Flight info
| Callsign | CP2737 |
|---|---|
| Flight time | 1h 45m |
| Altitude | 10000 |
| Route | SLCB TO SLCB TAG |
| Aircraft | C172/L-N/3224 |
Departure
| Time | 2026-04-30 00:40 |
|---|---|
| Airport | Jorge Wilsterman International Airport (SLCB) |
Arrival
| Time | 2026-04-30 02:25 |
|---|---|
| Airport | Jorge Wilsterman International Airport (SLCB) |
| Time | Latitude | Longitude | Altitude | Speed | Heading |
|---|---|---|---|---|---|
| 2026-04-30 00:21 | -17.41565 | -66.17144 | 8361 ft | 0 kts | 115° |
| 2026-04-30 00:21 | -17.41559 | -66.17158 | 8361 ft | 3 kts | 115° |
| 2026-04-30 00:21 | -17.41557 | -66.17162 | 8361 ft | 0 kts | 115° |
| 2026-04-30 00:29 | -17.41562 | -66.17157 | 8361 ft | 3 kts | 168° |
| 2026-04-30 00:29 | -17.41577 | -66.17178 | 8361 ft | 2 kts | 283° |
| 2026-04-30 00:30 | -17.41577 | -66.17179 | 8361 ft | 0 kts | 289° |
| 2026-04-30 00:30 | -17.41573 | -66.17186 | 8361 ft | 8 kts | 302° |
| 2026-04-30 00:31 | -17.41529 | -66.17231 | 8361 ft | 10 kts | 10° |
| 2026-04-30 00:31 | -17.41467 | -66.17196 | 8362 ft | 10 kts | 37° |
| 2026-04-30 00:31 | -17.41409 | -66.17152 | 8364 ft | 10 kts | 30° |
| 2026-04-30 00:31 | -17.41395 | -66.17142 | 8364 ft | 0 kts | 34° |
| 2026-04-30 00:32 | -17.41337 | -66.17116 | 8365 ft | 15 kts | 6° |
| 2026-04-30 00:32 | -17.41230 | -66.17148 | 8363 ft | 17 kts | 335° |
| 2026-04-30 00:32 | -17.41139 | -66.17145 | 8363 ft | 13 kts | 44° |
| 2026-04-30 00:33 | -17.41103 | -66.17070 | 8364 ft | 0 kts | 83° |
| 2026-04-30 00:36 | -17.41100 | -66.17032 | 8364 ft | 10 kts | 81° |
| 2026-04-30 00:37 | -17.41080 | -66.16923 | 8366 ft | 14 kts | 125° |
| 2026-04-30 00:37 | -17.41119 | -66.16922 | 8366 ft | 0 kts | 218° |
| 2026-04-30 00:37 | -17.41141 | -66.16940 | 8366 ft | 17 kts | 217° |
| 2026-04-30 00:38 | -17.41321 | -66.17094 | 8365 ft | 49 kts | 213° |
| 2026-04-30 00:38 | -17.41680 | -66.17368 | 8359 ft | 77 kts | 217° |
| 2026-04-30 00:38 | -17.42142 | -66.17736 | 8400 ft | 87 kts | 218° |
| 2026-04-30 00:38 | -17.42621 | -66.18108 | 8533 ft | 82 kts | 216° |
| 2026-04-30 00:39 | -17.43083 | -66.18440 | 8648 ft | 81 kts | 220° |
| 2026-04-30 00:39 | -17.43533 | -66.18795 | 8751 ft | 81 kts | 219° |
| 2026-04-30 00:39 | -17.44072 | -66.18883 | 8844 ft | 84 kts | 161° |
| 2026-04-30 00:39 | -17.44505 | -66.18426 | 8873 ft | 94 kts | 130° |
| 2026-04-30 00:40 | -17.44911 | -66.17872 | 8963 ft | 97 kts | 130° |
| 2026-04-30 00:40 | -17.45266 | -66.17283 | 9035 ft | 99 kts | 107° |
| 2026-04-30 00:40 | -17.45133 | -66.16622 | 9158 ft | 97 kts | 49° |
| 2026-04-30 00:40 | -17.44587 | -66.16234 | 9274 ft | 96 kts | 32° |
| 2026-04-30 00:41 | -17.44015 | -66.15844 | 9379 ft | 98 kts | 32° |
| 2026-04-30 00:41 | -17.43450 | -66.15433 | 9505 ft | 97 kts | 33° |
| 2026-04-30 00:41 | -17.42863 | -66.15037 | 9493 ft | 109 kts | 30° |
| 2026-04-30 00:41 | -17.42170 | -66.14630 | 9454 ft | 116 kts | 26° |
| 2026-04-30 00:42 | -17.41467 | -66.14193 | 9363 ft | 114 kts | 30° |
| 2026-04-30 00:42 | -17.40815 | -66.13835 | 9271 ft | 98 kts | 20° |
| 2026-04-30 00:42 | -17.40201 | -66.13655 | 9112 ft | 94 kts | 345° |
| 2026-04-30 00:42 | -17.39703 | -66.14040 | 9146 ft | 87 kts | 308° |
| 2026-04-30 00:43 | -17.39335 | -66.14519 | 9160 ft | 80 kts | 306° |
| 2026-04-30 00:43 | -17.39103 | -66.14998 | 9184 ft | 70 kts | 270° |
| 2026-04-30 00:43 | -17.39344 | -66.15463 | 9118 ft | 84 kts | 226° |
| 2026-04-30 00:43 | -17.39821 | -66.15881 | 8969 ft | 89 kts | 220° |
| 2026-04-30 00:44 | -17.40301 | -66.16270 | 8796 ft | 85 kts | 217° |
| 2026-04-30 00:44 | -17.40773 | -66.16642 | 8610 ft | 83 kts | 220° |
| 2026-04-30 00:44 | -17.41214 | -66.16996 | 8401 ft | 77 kts | 217° |
| 2026-04-30 00:44 | -17.41588 | -66.17295 | 8361 ft | 58 kts | 219° |
| 2026-04-30 00:45 | -17.41918 | -66.17558 | 8357 ft | 70 kts | 217° |
| 2026-04-30 00:45 | -17.42347 | -66.17897 | 8407 ft | 81 kts | 219° |
| 2026-04-30 00:45 | -17.42798 | -66.18256 | 8509 ft | 81 kts | 218° |
| 2026-04-30 00:45 | -17.43237 | -66.18588 | 8650 ft | 76 kts | 217° |
| 2026-04-30 00:46 | -17.43663 | -66.18906 | 8748 ft | 76 kts | 215° |
| 2026-04-30 00:46 | -17.44054 | -66.19290 | 8813 ft | 78 kts | 252° |
| 2026-04-30 00:46 | -17.43913 | -66.19842 | 8833 ft | 83 kts | 300° |
| 2026-04-30 00:46 | -17.43586 | -66.20329 | 8923 ft | 84 kts | 303° |
| 2026-04-30 00:47 | -17.43196 | -66.20814 | 8962 ft | 89 kts | 311° |
| 2026-04-30 00:47 | -17.42709 | -66.21149 | 8984 ft | 96 kts | 7° |
| 2026-04-30 00:47 | -17.42116 | -66.20800 | 9077 ft | 95 kts | 33° |
| 2026-04-30 00:47 | -17.41576 | -66.20366 | 9026 ft | 105 kts | 40° |
| 2026-04-30 00:48 | -17.40954 | -66.19873 | 8881 ft | 119 kts | 29° |
| 2026-04-30 00:48 | -17.40149 | -66.19618 | 8492 ft | 139 kts | 11° |
| 2026-04-30 00:48 | -17.39287 | -66.19509 | 8775 ft | 92 kts | 342° |
| 2026-04-30 00:48 | -17.39135 | -66.20068 | 8783 ft | 100 kts | 264° |
| 2026-04-30 00:49 | -17.39184 | -66.20762 | 8629 ft | 92 kts | 269° |
| 2026-04-30 00:49 | -17.39189 | -66.21409 | 8509 ft | 85 kts | 272° |
| 2026-04-30 00:49 | -17.39162 | -66.21994 | 8453 ft | 79 kts | 270° |
| 2026-04-30 00:49 | -17.39161 | -66.22041 | 8457 ft | 79 kts | 270° |
| 2026-04-30 01:45 | -17.39158 | -66.22205 | 8462 ft | 80 kts | 270° |
| 2026-04-30 01:45 | -17.39150 | -66.22790 | 8454 ft | 81 kts | 271° |
| 2026-04-30 01:45 | -17.39156 | -66.23377 | 8458 ft | 80 kts | 266° |
| 2026-04-30 01:46 | -17.39196 | -66.23959 | 8458 ft | 80 kts | 264° |
| 2026-04-30 01:46 | -17.39205 | -66.24541 | 8431 ft | 83 kts | 279° |
| 2026-04-30 01:46 | -17.39085 | -66.25106 | 8465 ft | 78 kts | 269° |
| 2026-04-30 01:46 | -17.39190 | -66.25685 | 8456 ft | 77 kts | 258° |
| 2026-04-30 01:47 | -17.39285 | -66.26242 | 8428 ft | 81 kts | 261° |
| 2026-04-30 01:47 | -17.39293 | -66.26805 | 8443 ft | 81 kts | 272° |
| 2026-04-30 01:47 | -17.39369 | -66.27353 | 8505 ft | 75 kts | 263° |
| 2026-04-30 01:47 | -17.39399 | -66.27927 | 8467 ft | 77 kts | 265° |
| 2026-04-30 01:48 | -17.39433 | -66.28500 | 8430 ft | 79 kts | 265° |
| 2026-04-30 01:48 | -17.39467 | -66.29073 | 8400 ft | 80 kts | 265° |
| 2026-04-30 01:48 | -17.39496 | -66.29629 | 8399 ft | 77 kts | 269° |
| 2026-04-30 01:48 | -17.39521 | -66.30180 | 8392 ft | 75 kts | 264° |
| 2026-04-30 01:49 | -17.39562 | -66.30727 | 8396 ft | 76 kts | 265° |
| 2026-04-30 01:49 | -17.39583 | -66.31275 | 8427 ft | 73 kts | 266° |
| 2026-04-30 01:49 | -17.39616 | -66.31806 | 8442 ft | 72 kts | 265° |
| 2026-04-30 01:49 | -17.39695 | -66.32318 | 8457 ft | 72 kts | 243° |
| 2026-04-30 01:50 | -17.39980 | -66.32743 | 8482 ft | 74 kts | 216° |
| 2026-04-30 01:50 | -17.40468 | -66.32993 | 8489 ft | 82 kts | 203° |
| 2026-04-30 01:50 | -17.40845 | -66.33170 | 8522 ft | 84 kts | 204° |
| 2026-04-30 01:53 | -17.41210 | -66.33232 | 8577 ft | 84 kts | 158° |
| 2026-04-30 01:53 | -17.41252 | -66.32691 | 8588 ft | 86 kts | 36° |
| 2026-04-30 01:53 | -17.40807 | -66.32366 | 8626 ft | 88 kts | 42° |
| 2026-04-30 01:54 | -17.40762 | -66.31775 | 8696 ft | 83 kts | 110° |
| 2026-04-30 01:54 | -17.40588 | -66.31337 | 8701 ft | 88 kts | 5° |
| 2026-04-30 01:57 | -17.40586 | -66.31337 | 8700 ft | 88 kts | 5° |
| 2026-04-30 01:57 | -17.39993 | -66.31269 | 8817 ft | 83 kts | 9° |
| 2026-04-30 01:57 | -17.39687 | -66.31139 | 8812 ft | 92 kts | 28° |
| 2026-04-30 01:57 | -17.39254 | -66.30909 | 8977 ft | 78 kts | 2° |
| 2026-04-30 01:58 | -17.38658 | -66.30979 | 8994 ft | 86 kts | 4° |
| 2026-04-30 01:58 | -17.38005 | -66.30995 | 8974 ft | 95 kts | 338° |
| 2026-04-30 01:58 | -17.37417 | -66.31098 | 9135 ft | 90 kts | 14° |
| 2026-04-30 01:58 | -17.36935 | -66.30629 | 9247 ft | 93 kts | 63° |
| 2026-04-30 01:59 | -17.37727 | -66.29579 | 9415 ft | 79 kts | 140° |
| 2026-04-30 01:59 | -17.38054 | -66.29033 | 9409 ft | 94 kts | 114° |
| 2026-04-30 01:59 | -17.38100 | -66.28380 | 9435 ft | 100 kts | 85° |
| 2026-04-30 02:00 | -17.38565 | -66.27783 | 9029 ft | 130 kts | 152° |
| 2026-04-30 02:00 | -17.39162 | -66.27208 | 9240 ft | 112 kts | 113° |
| 2026-04-30 02:00 | -17.39122 | -66.26388 | 8955 ft | 122 kts | 84° |
| 2026-04-30 02:00 | -17.39345 | -66.25357 | 8662 ft | 136 kts | 93° |
| 2026-04-30 02:01 | -17.39314 | -66.24598 | 9054 ft | 89 kts | 86° |
| 2026-04-30 02:01 | -17.39334 | -66.23850 | 8838 ft | 107 kts | 96° |
| 2026-04-30 02:01 | -17.39412 | -66.23082 | 8765 ft | 108 kts | 96° |
| 2026-04-30 02:01 | -17.39560 | -66.22318 | 8615 ft | 107 kts | 109° |
| 2026-04-30 02:02 | -17.39704 | -66.21563 | 8522 ft | 105 kts | 90° |
| 2026-04-30 02:02 | -17.39736 | -66.20809 | 8436 ft | 102 kts | 94° |
| 2026-04-30 02:02 | -17.39740 | -66.20101 | 8421 ft | 95 kts | 85° |
| 2026-04-30 02:02 | -17.39690 | -66.19446 | 8395 ft | 88 kts | 85° |
| 2026-04-30 02:03 | -17.39654 | -66.18847 | 8432 ft | 84 kts | 84° |
| 2026-04-30 02:03 | -17.39626 | -66.18239 | 8418 ft | 83 kts | 86° |
| 2026-04-30 02:03 | -17.39633 | -66.17818 | 8445 ft | 80 kts | 84° |
| 2026-04-30 02:21 | -17.39635 | -66.17466 | 8498 ft | 78 kts | 101° |
| 2026-04-30 02:21 | -17.39588 | -66.16921 | 8576 ft | 78 kts | 76° |
| 2026-04-30 02:22 | -17.39518 | -66.16366 | 8666 ft | 80 kts | 92° |
| 2026-04-30 02:22 | -17.39399 | -66.15793 | 8762 ft | 81 kts | 62° |
| 2026-04-30 02:22 | -17.39097 | -66.15289 | 8856 ft | 83 kts | 44° |
| 2026-04-30 02:22 | -17.38616 | -66.14990 | 8939 ft | 81 kts | 2° |
| 2026-04-30 02:23 | -17.38123 | -66.15207 | 9011 ft | 82 kts | 302° |
| 2026-04-30 02:23 | -17.38128 | -66.15743 | 9143 ft | 78 kts | 232° |
| 2026-04-30 02:23 | -17.38626 | -66.15993 | 9234 ft | 83 kts | 187° |
| 2026-04-30 02:23 | -17.39221 | -66.15972 | 9307 ft | 89 kts | 183° |
| 2026-04-30 02:24 | -17.39833 | -66.16054 | 9154 ft | 90 kts | 202° |
| 2026-04-30 02:24 | -17.40364 | -66.16312 | 8971 ft | 79 kts | 217° |
| 2026-04-30 02:24 | -17.40799 | -66.16643 | 8676 ft | 76 kts | 226° |
| 2026-04-30 02:24 | -17.41207 | -66.16991 | 8409 ft | 74 kts | 220° |
| 2026-04-30 02:25 | -17.41555 | -66.17269 | 8361 ft | 51 kts | 221° |
| 2026-04-30 02:25 | -17.41733 | -66.17424 | 8358 ft | 15 kts | 221° |
| 2026-04-30 02:25 | -17.41768 | -66.17440 | 8357 ft | 7 kts | 57° |
| 2026-04-30 02:25 | -17.41688 | -66.17377 | 8359 ft | 16 kts | 39° |
| 2026-04-30 02:26 | -17.41610 | -66.17313 | 8360 ft | 13 kts | 39° |
| 2026-04-30 02:26 | -17.41550 | -66.17250 | 8361 ft | 12 kts | 72° |
| 2026-04-30 02:26 | -17.41579 | -66.17181 | 8361 ft | 10 kts | 136° |
| 2026-04-30 02:26 | -17.41630 | -66.17148 | 8361 ft | 8 kts | 151° |
| 2026-04-30 02:27 | -17.41656 | -66.17133 | 8360 ft | 0 kts | 177° |